createdAt,value
2023-04-15T00:01:24.105Z,5.82
2023-04-15T00:06:26.399Z,6.32
2023-04-15T00:11:28.952Z,5.40
2023-04-15T00:16:31.491Z,5.90
2023-04-15T00:21:49.165Z,6.28
2023-04-15T00:26:51.407Z,6.25
2023-04-15T00:31:53.595Z,7.53
2023-04-15T00:36:55.832Z,7.47
2023-04-15T00:41:58.116Z,7.50
2023-04-15T00:47:02.059Z,7.78
2023-04-15T00:52:04.462Z,7.87
2023-04-15T00:57:07.234Z,8.25
2023-04-15T01:02:09.537Z,7.37
2023-04-15T01:07:12.095Z,8.17
2023-04-15T01:12:18.486Z,7.82
2023-04-15T01:17:21.082Z,8.30
2023-04-15T01:22:24.372Z,8.20
2023-04-15T01:27:26.643Z,7.53
2023-04-15T01:32:29.334Z,8.10
2023-04-15T01:37:33.494Z,8.23
2023-04-15T01:42:36.876Z,8.32
2023-04-15T01:47:39.409Z,8.45
2023-04-15T01:52:44.309Z,9.05
2023-04-15T01:57:46.719Z,8.33
2023-04-15T02:02:49.559Z,8.65
2023-04-15T02:07:52.270Z,8.63
2023-04-15T02:12:57.320Z,8.88
2023-04-15T02:18:00.960Z,7.93
2023-04-15T02:23:03.250Z,8.37
2023-04-15T02:28:06.492Z,8.23
2023-04-15T02:33:08.733Z,8.38
2023-04-15T02:38:11.636Z,7.82
2023-04-15T02:43:13.813Z,8.35
2023-04-15T02:48:18.116Z,7.50
2023-04-15T02:53:20.850Z,8.40
2023-04-15T02:58:23.049Z,7.60
2023-04-15T03:03:25.346Z,8.27
2023-04-15T03:08:27.573Z,7.57
2023-04-15T03:13:29.782Z,8.30
2023-04-15T03:18:31.947Z,7.75
2023-04-15T03:23:34.061Z,7.75
2023-04-15T03:28:36.569Z,7.65
2023-04-15T03:33:38.729Z,7.50
2023-04-15T03:38:41.091Z,8.10
2023-04-15T03:43:43.330Z,8.10
2023-04-15T03:48:45.526Z,8.15
2023-04-15T03:53:47.724Z,8.35
2023-04-15T03:58:49.838Z,7.70
2023-04-15T04:03:52.528Z,7.67
2023-04-15T04:08:54.819Z,8.85
2023-04-15T04:13:56.922Z,8.30
2023-04-15T04:18:59.381Z,8.55
2023-04-15T04:24:01.796Z,9.02
2023-04-15T04:29:04.123Z,8.57
2023-04-15T04:34:06.640Z,12.35
2023-04-15T04:39:09.017Z,15.40
2023-04-15T04:44:11.186Z,10.27
2023-04-15T04:49:13.326Z,8.90
2023-04-15T04:54:16.244Z,8.40
2023-04-15T04:59:19.494Z,8.43
2023-04-15T05:04:21.758Z,7.68
2023-04-15T05:09:26.619Z,7.60
2023-04-15T05:14:28.745Z,7.57
2023-04-15T05:19:30.979Z,7.23
2023-04-15T05:24:33.132Z,7.72
2023-04-15T05:29:35.266Z,7.35
2023-04-15T05:34:38.718Z,6.87
2023-04-15T05:39:40.896Z,7.40
2023-04-15T05:44:43.222Z,6.40
2023-04-15T05:49:45.535Z,5.43
2023-04-15T05:54:47.712Z,5.50
2023-04-15T05:59:52.410Z,5.70
2023-04-15T06:04:54.641Z,5.78
2023-04-15T06:09:57.022Z,6.00
2023-04-15T06:15:00.513Z,5.95
2023-04-15T06:20:03.677Z,6.00
2023-04-15T06:25:08.211Z,5.50
2023-04-15T06:30:10.819Z,6.03
2023-04-15T06:35:13.034Z,4.60
2023-04-15T06:40:15.354Z,4.93
2023-04-15T06:45:18.838Z,5.10
2023-04-15T06:50:21.001Z,4.85
2023-04-15T06:55:23.256Z,4.72
2023-04-15T07:00:25.659Z,4.57
2023-04-15T07:05:28.126Z,4.57
2023-04-15T07:10:30.705Z,4.60
2023-04-15T07:15:33.607Z,4.75
2023-04-15T07:20:36.336Z,4.57
2023-04-15T07:25:38.580Z,4.40
2023-04-15T07:30:41.664Z,3.85
2023-04-15T07:35:44.132Z,4.18
2023-04-15T07:40:46.937Z,3.90
2023-04-15T07:45:49.154Z,4.12
2023-04-15T07:50:51.682Z,3.40
2023-04-15T07:55:53.970Z,3.65
2023-04-15T08:00:56.289Z,3.60
2023-04-15T08:06:01.115Z,3.77
2023-04-15T08:11:03.308Z,3.28
2023-04-15T08:16:18.665Z,3.13
2023-04-15T08:21:21.090Z,3.00
2023-04-15T08:26:23.525Z,2.80
2023-04-15T08:31:29.896Z,2.90
2023-04-15T08:36:32.622Z,2.40
2023-04-15T08:41:41.286Z,2.33
2023-04-15T08:46:44.772Z,2.00
2023-04-15T08:51:47.743Z,2.00
2023-04-15T08:56:50.864Z,2.03
2023-04-15T09:01:53.601Z,2.00
2023-04-15T09:06:57.602Z,2.10
2023-04-15T09:12:01.646Z,1.87
2023-04-15T09:17:04.798Z,1.98
2023-04-15T09:22:07.106Z,2.10
2023-04-15T09:27:09.387Z,1.60
2023-04-15T09:32:15.684Z,1.77
2023-04-15T09:37:31.756Z,1.50
2023-04-15T09:42:34.668Z,1.80
2023-04-15T09:47:37.126Z,1.30
2023-04-15T09:52:43.976Z,1.30
2023-04-15T09:57:49.565Z,1.30
2023-04-15T10:02:52.354Z,1.75
2023-04-15T10:07:54.979Z,2.70
2023-04-15T10:12:57.356Z,3.53
2023-04-15T10:18:01.511Z,3.60
2023-04-15T10:23:04.345Z,2.70
2023-04-15T10:28:09.009Z,2.12
2023-04-15T10:33:11.586Z,2.50
2023-04-15T10:38:39.193Z,2.08
2023-04-15T10:44:25.167Z,1.87
2023-04-15T10:49:27.561Z,1.40
2023-04-15T10:54:29.657Z,0.95
2023-04-15T10:59:32.688Z,1.10
2023-04-15T11:04:54.016Z,1.27
2023-04-15T11:09:56.590Z,1.35
2023-04-15T11:14:58.857Z,1.23
2023-04-15T11:20:01.391Z,1.30
2023-04-15T11:25:04.609Z,1.40
2023-04-15T11:30:27.100Z,0.90
2023-04-15T11:35:30.705Z,0.90
2023-04-15T11:40:36.433Z,1.10
2023-04-15T11:45:53.039Z,1.00
2023-04-15T11:51:10.097Z,1.80
2023-04-15T11:56:30.809Z,1.20
2023-04-15T12:01:39.379Z,0.80
2023-04-15T12:06:41.898Z,1.10
2023-04-15T12:11:44.046Z,0.75
2023-04-15T12:16:52.659Z,1.00
2023-04-15T12:22:01.450Z,1.07
2023-04-15T12:27:09.352Z,1.35
2023-04-15T12:32:18.619Z,1.20
2023-04-15T12:37:20.988Z,1.30
2023-04-15T12:42:23.240Z,1.10
2023-04-15T12:47:25.482Z,1.00
2023-04-15T12:52:27.755Z,1.00
2023-04-15T12:57:29.958Z,1.30
2023-04-15T13:02:32.438Z,1.48
2023-04-15T13:07:34.767Z,1.10
2023-04-15T13:12:37.430Z,1.52
2023-04-15T13:17:39.668Z,1.87
2023-04-15T13:22:42.637Z,2.10
2023-04-15T13:27:44.863Z,2.05
2023-04-15T13:32:48.782Z,1.40
2023-04-15T13:37:54.305Z,1.40
2023-04-15T13:42:57.793Z,1.40
2023-04-15T13:47:59.999Z,1.10
2023-04-15T13:53:02.583Z,1.50
2023-04-15T13:58:04.810Z,1.70
2023-04-15T14:03:07.187Z,1.60
2023-04-15T14:08:09.525Z,1.70
2023-04-15T14:13:11.779Z,2.70
2023-04-15T14:18:14.084Z,3.00
2023-04-15T14:23:16.395Z,3.28
2023-04-15T14:28:18.547Z,3.33
2023-04-15T14:33:22.344Z,3.00
2023-04-15T14:38:24.527Z,2.77
2023-04-15T14:43:28.178Z,3.45
2023-04-15T14:48:32.121Z,4.30
2023-04-15T14:53:35.455Z,3.95
2023-04-15T14:58:37.964Z,3.87
2023-04-15T15:03:40.472Z,4.30
2023-04-15T15:08:45.870Z,3.58
2023-04-15T15:13:49.765Z,2.80
2023-04-15T15:18:52.114Z,2.05
2023-04-15T15:23:54.523Z,1.60
2023-04-15T15:28:56.715Z,1.63
2023-04-15T15:33:58.878Z,1.30
2023-04-15T15:39:00.996Z,1.10
2023-04-15T15:44:04.369Z,0.80
2023-04-15T15:49:07.393Z,1.17
2023-04-15T15:54:09.564Z,1.33
2023-04-15T15:59:11.726Z,1.30
2023-04-15T16:04:14.022Z,1.50
2023-04-15T16:09:16.906Z,1.50
2023-04-15T16:14:22.167Z,1.95
2023-04-15T16:19:24.316Z,1.90
2023-04-15T16:24:27.560Z,2.30
2023-04-15T16:29:29.703Z,2.37
2023-04-15T16:34:32.449Z,2.55
2023-04-15T16:39:34.782Z,2.75
2023-04-15T16:44:37.106Z,2.80
2023-04-15T16:49:39.390Z,2.87
2023-04-15T16:54:41.665Z,2.87
2023-04-15T16:59:43.806Z,2.78
2023-04-15T17:04:45.969Z,2.42
2023-04-15T17:09:48.078Z,2.60
2023-04-15T17:14:50.252Z,2.72
2023-04-15T17:19:52.495Z,2.37
2023-04-15T17:24:54.724Z,2.70
2023-04-15T17:29:57.576Z,3.17
2023-04-15T17:35:06.038Z,4.00
2023-04-15T17:40:09.049Z,3.53
2023-04-15T17:45:11.570Z,3.30
2023-04-15T17:50:13.761Z,3.20
2023-04-15T17:55:15.982Z,3.78
2023-04-15T18:00:18.361Z,3.93
2023-04-15T18:05:20.932Z,3.92
2023-04-15T18:10:24.097Z,3.90
2023-04-15T18:15:26.462Z,4.00
2023-04-15T18:20:29.189Z,4.32
2023-04-15T18:25:32.082Z,4.70
2023-04-15T18:30:34.234Z,4.37
2023-04-15T18:35:36.728Z,5.10
2023-04-15T18:40:38.920Z,4.40
2023-04-15T18:45:41.281Z,5.30
2023-04-15T18:50:43.650Z,5.83
2023-04-15T18:55:45.840Z,5.82
2023-04-15T19:00:48.057Z,5.70
2023-04-15T19:05:50.650Z,5.05
2023-04-15T19:10:53.397Z,5.25
2023-04-15T19:15:55.548Z,5.00
2023-04-15T19:20:57.909Z,5.90
2023-04-15T19:26:02.147Z,5.68
2023-04-15T19:31:04.613Z,5.65
2023-04-15T19:36:07.860Z,6.37
2023-04-15T19:41:11.079Z,6.83
2023-04-15T19:46:13.529Z,7.12
2023-04-15T19:51:15.910Z,8.95
2023-04-15T19:56:18.054Z,9.80
2023-04-15T20:01:21.035Z,9.57
2023-04-15T20:06:23.414Z,9.97
2023-04-15T20:12:09.929Z,10.48
2023-04-15T20:16:51.532Z,10.52
2023-04-15T20:21:54.444Z,9.70
2023-04-15T20:26:57.675Z,9.45
2023-04-15T20:31:59.806Z,9.57
2023-04-15T20:37:02.162Z,8.68
2023-04-15T20:42:10.883Z,9.88
2023-04-15T20:47:13.921Z,9.02
2023-04-15T20:52:16.406Z,9.50
2023-04-15T20:57:20.305Z,9.63
2023-04-15T21:02:23.760Z,10.20
2023-04-15T21:07:26.211Z,10.02
2023-04-15T21:12:31.329Z,9.75
2023-04-15T21:17:35.362Z,11.23
2023-04-15T21:22:37.687Z,10.00
2023-04-15T21:27:39.828Z,10.93
2023-04-15T21:32:42.011Z,11.25
2023-04-15T21:37:44.222Z,11.10
2023-04-15T21:42:47.496Z,11.38
2023-04-15T21:48:00.862Z,12.27
2023-04-15T21:53:09.913Z,12.00
2023-04-15T21:58:13.461Z,12.25
2023-04-15T22:03:16.613Z,12.93
2023-04-15T22:08:18.915Z,12.70
2023-04-15T22:13:21.174Z,13.07
2023-04-15T22:18:23.443Z,13.15
2023-04-15T22:23:25.585Z,13.52
2023-04-15T22:28:27.830Z,13.50
2023-04-15T22:33:30.057Z,13.15
2023-04-15T22:38:32.296Z,12.87
2023-04-15T22:43:34.456Z,12.77
2023-04-15T22:48:36.757Z,11.65
2023-04-15T22:53:38.911Z,11.80
2023-04-15T22:58:41.140Z,11.75
2023-04-15T23:03:56.077Z,11.70
2023-04-15T23:09:06.935Z,14.13
2023-04-15T23:14:09.176Z,14.32
2023-04-15T23:19:11.709Z,15.02
2023-04-15T23:24:14.173Z,15.52
2023-04-15T23:29:16.367Z,16.50
2023-04-15T23:34:18.546Z,16.95
2023-04-15T23:39:20.834Z,16.85
2023-04-15T23:44:23.383Z,15.45
2023-04-15T23:49:25.695Z,15.48
2023-04-15T23:54:27.844Z,14.43
2023-04-15T23:59:30.035Z,15.40
